createdAt,value
2018-06-01T00:01:24.116Z,3.50
2018-06-01T00:03:51.885Z,2.63
2018-06-01T00:06:19.885Z,2.83
2018-06-01T00:08:46.608Z,2.73
2018-06-01T00:11:15.423Z,3.03
2018-06-01T00:13:42.220Z,2.90
2018-06-01T00:16:08.776Z,2.87
2018-06-01T00:18:35.490Z,2.53
2018-06-01T00:21:02.756Z,2.50
2018-06-01T00:23:31.175Z,3.10
2018-06-01T00:25:57.826Z,2.50
2018-06-01T00:28:24.536Z,2.27
2018-06-01T00:30:51.153Z,2.37
2018-06-01T00:33:17.744Z,2.50
2018-06-01T00:35:44.420Z,2.20
2018-06-01T00:38:11.116Z,2.70
2018-06-01T00:40:37.928Z,2.87
2018-06-01T00:43:04.848Z,2.60
2018-06-01T00:45:32.217Z,2.90
2018-06-01T00:47:59.185Z,2.37
2018-06-01T00:50:25.990Z,3.30
2018-06-01T00:52:53.758Z,2.40
2018-06-01T00:55:25.479Z,2.50
2018-06-01T00:57:52.173Z,2.27
2018-06-01T01:00:20.341Z,2.70
2018-06-01T01:02:47.020Z,2.60
2018-06-01T01:05:13.865Z,2.60
2018-06-01T01:07:40.574Z,2.63
2018-06-01T01:10:07.383Z,2.27
2018-06-01T01:12:33.961Z,2.50
2018-06-01T01:15:00.673Z,2.30
2018-06-01T01:17:27.370Z,2.50
2018-06-01T01:19:53.994Z,2.20
2018-06-01T01:22:20.784Z,2.93
2018-06-01T01:24:47.517Z,3.10
2018-06-01T01:27:15.183Z,2.60
2018-06-01T01:29:43.077Z,2.40
2018-06-01T01:32:10.250Z,2.70
2018-06-01T01:34:36.911Z,2.90
2018-06-01T01:37:03.821Z,3.60
2018-06-01T01:39:30.712Z,3.30
2018-06-01T01:41:57.533Z,2.53
2018-06-01T01:44:24.270Z,2.47
2018-06-01T01:46:50.834Z,2.60
2018-06-01T01:49:17.571Z,2.63
2018-06-01T01:51:44.343Z,2.87
2018-06-01T01:54:11.137Z,2.70
2018-06-01T01:56:37.786Z,2.73
2018-06-01T01:59:04.529Z,2.57
2018-06-01T02:01:31.326Z,2.70
2018-06-01T02:03:58.121Z,2.70
2018-06-01T02:06:25.010Z,2.93
2018-06-01T02:08:51.815Z,2.63
2018-06-01T02:11:18.433Z,2.50
2018-06-01T02:13:45.198Z,2.80
2018-06-01T02:16:13.980Z,2.63
2018-06-01T02:18:40.610Z,2.97
2018-06-01T02:21:07.493Z,2.10
2018-06-01T02:23:34.221Z,2.70
2018-06-01T02:26:01.447Z,2.60
2018-06-01T02:28:28.399Z,2.60
2018-06-01T02:30:56.214Z,2.63
2018-06-01T02:33:23.557Z,3.07
2018-06-01T02:35:53.345Z,2.43
2018-06-01T02:38:20.097Z,2.67
2018-06-01T02:40:47.558Z,3.27
2018-06-01T02:43:14.208Z,2.53
2018-06-01T02:45:41.111Z,3.40
2018-06-01T02:48:07.916Z,2.77
2018-06-01T02:50:34.653Z,2.83
2018-06-01T02:53:02.326Z,3.07
2018-06-01T02:55:33.651Z,2.80
2018-06-01T02:58:07.311Z,3.40
2018-06-01T03:00:37.122Z,2.70
2018-06-01T03:03:07.078Z,3.40
2018-06-01T03:05:33.892Z,3.40
2018-06-01T03:08:00.685Z,3.37
2018-06-01T03:10:27.354Z,3.73
2018-06-01T03:12:54.150Z,4.43
2018-06-01T03:15:21.743Z,3.60
2018-06-01T03:17:48.679Z,4.00
2018-06-01T03:20:15.658Z,3.73
2018-06-01T03:22:42.577Z,4.00
2018-06-01T03:25:10.939Z,4.37
2018-06-01T03:27:42.311Z,4.17
2018-06-01T03:30:13.796Z,4.20
2018-06-01T03:32:41.101Z,4.80
2018-06-01T03:35:08.726Z,3.80
2018-06-01T03:37:36.617Z,4.40
2018-06-01T03:40:04.752Z,4.30
2018-06-01T03:42:34.670Z,4.03
2018-06-01T03:47:52.143Z,3.47
2018-06-01T03:50:21.340Z,3.60
2018-06-01T03:52:53.277Z,4.00
2018-06-01T03:55:20.139Z,3.50
2018-06-01T03:57:46.930Z,3.60
2018-06-01T04:00:13.744Z,3.93
2018-06-01T04:02:40.583Z,4.33
2018-06-01T04:05:07.290Z,4.53
2018-06-01T04:07:33.880Z,4.00
2018-06-01T04:10:00.429Z,3.90
2018-06-01T04:12:26.969Z,3.70
2018-06-01T04:14:53.761Z,4.33
2018-06-01T04:17:21.383Z,4.17
2018-06-01T04:19:48.277Z,4.67
2018-06-01T04:22:14.911Z,4.63
2018-06-01T04:24:43.308Z,4.17
2018-06-01T04:27:12.573Z,3.40
2018-06-01T04:29:39.541Z,3.47
2018-06-01T04:32:07.557Z,3.40
2018-06-01T04:34:34.966Z,3.30
2018-06-01T04:37:02.924Z,3.80
2018-06-01T04:39:29.957Z,4.07
2018-06-01T04:44:29.906Z,3.97
2018-06-01T04:46:57.498Z,4.40
2018-06-01T04:49:25.341Z,4.27
2018-06-01T04:51:52.598Z,3.90
2018-06-01T04:54:19.408Z,3.80
2018-06-01T04:56:46.682Z,3.80
2018-06-01T04:59:13.353Z,4.00
2018-06-01T05:01:40.006Z,4.40
2018-06-01T05:04:07.768Z,4.17
2018-06-01T05:06:34.498Z,3.90
2018-06-01T05:09:01.643Z,4.47
2018-06-01T05:11:28.637Z,4.30
2018-06-01T05:13:55.589Z,4.93
2018-06-01T05:16:22.325Z,4.83
2018-06-01T05:18:49.634Z,3.83
2018-06-01T05:21:16.441Z,4.27
2018-06-01T05:23:43.557Z,4.77
2018-06-01T05:26:10.392Z,4.60
2018-06-01T05:28:37.065Z,4.00
2018-06-01T05:31:03.873Z,4.53
2018-06-01T05:33:30.513Z,4.60
2018-06-01T05:35:57.450Z,4.17
2018-06-01T05:38:24.237Z,3.67
2018-06-01T05:40:50.874Z,4.13
2018-06-01T05:43:17.583Z,3.93
2018-06-01T05:45:44.181Z,4.30
2018-06-01T05:48:10.797Z,5.13
2018-06-01T05:50:37.586Z,4.87
2018-06-01T05:53:04.147Z,4.40
2018-06-01T05:55:30.841Z,3.90
2018-06-01T05:57:57.469Z,3.93
2018-06-01T06:00:24.610Z,4.17
2018-06-01T06:02:51.285Z,4.73
2018-06-01T06:05:18.161Z,4.43
2018-06-01T06:07:44.908Z,4.73
2018-06-01T06:10:11.826Z,3.80
2018-06-01T06:12:38.497Z,4.63
2018-06-01T06:15:05.164Z,4.63
2018-06-01T06:17:31.829Z,5.23
2018-06-01T06:19:58.429Z,4.33
2018-06-01T06:22:25.090Z,4.40
2018-06-01T06:24:54.125Z,4.40
2018-06-01T06:27:20.978Z,4.53
2018-06-01T06:29:47.685Z,4.93
2018-06-01T06:32:14.410Z,4.30
2018-06-01T06:34:41.013Z,4.03
2018-06-01T06:37:07.589Z,3.50
2018-06-01T06:39:34.381Z,3.83
2018-06-01T06:42:01.034Z,3.90
2018-06-01T06:44:27.793Z,3.90
2018-06-01T06:46:54.730Z,4.10
2018-06-01T06:49:22.383Z,4.03
2018-06-01T06:51:49.609Z,3.87
2018-06-01T06:54:16.762Z,3.37
2018-06-01T06:56:43.652Z,4.13
2018-06-01T06:59:10.640Z,4.37
2018-06-01T07:01:37.716Z,4.43
2018-06-01T07:04:04.858Z,4.27
2018-06-01T07:06:31.659Z,4.20
2018-06-01T07:08:58.466Z,4.53
2018-06-01T07:11:25.546Z,4.50
2018-06-01T07:13:52.410Z,6.53
2018-06-01T07:16:19.671Z,4.70
2018-06-01T07:18:46.421Z,4.77
2018-06-01T07:21:13.850Z,4.23
2018-06-01T07:23:40.598Z,4.20
2018-06-01T07:26:07.719Z,5.10
2018-06-01T07:28:34.461Z,4.70
2018-06-01T07:31:01.379Z,4.67
2018-06-01T07:33:28.378Z,7.93
2018-06-01T07:35:55.187Z,5.37
2018-06-01T07:38:22.758Z,3.73
2018-06-01T07:40:49.718Z,5.17
2018-06-01T07:43:16.512Z,6.30
2018-06-01T07:45:43.110Z,11.93
2018-06-01T07:48:09.730Z,7.30
2018-06-01T07:50:36.452Z,4.40
2018-06-01T07:53:03.855Z,4.70
2018-06-01T07:55:30.484Z,4.47
2018-06-01T07:57:57.314Z,6.90
2018-06-01T08:00:23.789Z,3.93
2018-06-01T08:02:50.467Z,6.97
2018-06-01T08:05:17.101Z,8.70
2018-06-01T08:07:43.710Z,4.47
2018-06-01T08:10:10.342Z,3.97
2018-06-01T08:12:37.113Z,3.83
2018-06-01T08:15:03.615Z,5.93
2018-06-01T08:17:30.125Z,3.70
2018-06-01T08:19:56.822Z,3.60
2018-06-01T08:22:23.385Z,3.87
2018-06-01T08:24:50.034Z,3.57
2018-06-01T08:27:16.521Z,3.50
2018-06-01T08:29:44.190Z,3.83
2018-06-01T08:32:10.876Z,4.10
2018-06-01T08:34:37.676Z,4.40
2018-06-01T08:37:04.197Z,14.10
2018-06-01T08:39:31.009Z,3.80
2018-06-01T08:41:57.609Z,3.53
2018-06-01T08:44:24.125Z,3.73
2018-06-01T08:46:51.055Z,3.33
2018-06-01T08:49:17.643Z,3.57
2018-06-01T08:51:44.331Z,4.57
2018-06-01T08:54:10.966Z,2.97
2018-06-01T08:56:37.694Z,3.87
2018-06-01T08:59:04.527Z,3.17
2018-06-01T09:01:31.333Z,3.23
2018-06-01T09:26:19.005Z,2.57
2018-06-01T09:28:45.580Z,3.30
2018-06-01T09:31:12.228Z,4.27
2018-06-01T09:33:39.108Z,3.53
2018-06-01T09:36:06.063Z,3.60
2018-06-01T09:38:32.860Z,5.53
2018-06-01T09:40:59.551Z,3.07
2018-06-01T09:43:26.270Z,2.90
2018-06-01T09:45:52.895Z,3.63
2018-06-01T09:48:19.770Z,3.10
2018-06-01T09:50:46.509Z,3.47
2018-06-01T09:53:13.079Z,2.63
2018-06-01T09:55:39.948Z,3.17
2018-06-01T09:58:07.037Z,3.23
2018-06-01T10:00:39.781Z,3.00
2018-06-01T10:03:06.383Z,3.20
2018-06-01T10:05:33.004Z,3.90
2018-06-01T10:07:59.934Z,3.23
2018-06-01T10:10:32.523Z,2.93
2018-06-01T10:12:59.288Z,3.63
2018-06-01T10:15:25.820Z,4.43
2018-06-01T10:17:52.569Z,2.97
2018-06-01T10:20:19.486Z,3.30
2018-06-01T10:22:46.284Z,3.90
2018-06-01T10:25:13.112Z,3.50
2018-06-01T10:27:39.728Z,3.63
2018-06-01T10:30:06.280Z,3.00
2018-06-01T10:32:32.969Z,4.90
2018-06-01T10:34:59.575Z,3.00
2018-06-01T10:37:28.447Z,3.17
2018-06-01T10:39:55.526Z,3.60
2018-06-01T10:42:22.277Z,3.93
2018-06-01T10:44:48.962Z,4.50
2018-06-01T10:47:15.639Z,3.40
2018-06-01T10:49:42.813Z,3.63
2018-06-01T10:52:09.713Z,3.57
2018-06-01T10:54:36.265Z,3.53
2018-06-01T10:57:03.181Z,4.70
2018-06-01T10:59:29.936Z,4.30
2018-06-01T11:03:49.040Z,3.27
2018-06-01T11:06:15.847Z,3.33
2018-06-01T11:08:42.665Z,3.53
2018-06-01T11:11:09.232Z,3.60
2018-06-01T11:13:36.041Z,4.00
2018-06-01T11:16:02.679Z,3.17
2018-06-01T11:18:29.395Z,2.63
2018-06-01T11:20:56.176Z,3.03
2018-06-01T11:23:22.801Z,3.50
2018-06-01T11:25:49.481Z,3.13
2018-06-01T11:28:16.434Z,3.60
2018-06-01T11:30:43.240Z,3.73
2018-06-01T11:33:09.951Z,3.77
2018-06-01T11:35:36.753Z,3.63
2018-06-01T11:38:03.450Z,4.07
2018-06-01T11:40:30.178Z,3.77
2018-06-01T11:42:56.976Z,3.90
2018-06-01T11:45:23.615Z,3.37
2018-06-01T11:47:50.369Z,3.70
2018-06-01T11:50:17.097Z,3.80
2018-06-01T11:52:51.106Z,3.50
2018-06-01T11:55:17.744Z,4.07
2018-06-01T11:57:44.415Z,4.40
2018-06-01T12:00:11.016Z,3.60
2018-06-01T12:02:37.960Z,3.57
2018-06-01T12:05:04.649Z,3.47
2018-06-01T12:07:31.410Z,9.03
2018-06-01T12:09:57.948Z,4.40
2018-06-01T12:12:24.706Z,5.00
2018-06-01T12:14:51.330Z,3.53
2018-06-01T12:17:18.014Z,4.87
2018-06-01T12:19:44.544Z,4.23
2018-06-01T12:22:11.373Z,3.73
2018-06-01T12:24:38.320Z,3.83
2018-06-01T12:27:05.074Z,3.10
2018-06-01T12:29:32.063Z,3.87
2018-06-01T12:31:58.819Z,3.13
2018-06-01T12:34:25.583Z,3.73
2018-06-01T12:36:52.646Z,3.53
2018-06-01T12:39:19.419Z,3.70
2018-06-01T12:41:46.847Z,4.90
2018-06-01T12:44:13.664Z,3.70
2018-06-01T12:46:40.353Z,3.90
2018-06-01T12:49:07.384Z,3.90
2018-06-01T12:51:34.061Z,4.13
2018-06-01T12:54:00.881Z,4.33
2018-06-01T12:56:27.811Z,4.10
2018-06-01T12:58:54.965Z,3.93
2018-06-01T13:01:22.069Z,3.70
2018-06-01T13:03:49.032Z,3.77
2018-06-01T13:06:15.862Z,4.50
2018-06-01T13:08:42.773Z,4.30
2018-06-01T13:11:09.392Z,4.00
2018-06-01T13:13:35.887Z,3.70
2018-06-01T13:16:02.501Z,4.70
2018-06-01T13:18:29.009Z,4.20
2018-06-01T13:20:55.595Z,4.00
2018-06-01T13:23:22.227Z,4.10
2018-06-01T13:25:48.736Z,3.73
2018-06-01T13:28:15.407Z,3.67
2018-06-01T13:30:42.160Z,4.07
2018-06-01T13:33:08.920Z,3.33
2018-06-01T13:35:35.601Z,4.00
2018-06-01T13:38:02.270Z,3.80
2018-06-01T13:40:29.103Z,4.03
2018-06-01T13:42:55.688Z,4.20
2018-06-01T13:45:22.370Z,4.20
2018-06-01T13:47:49.259Z,4.07
2018-06-01T13:50:15.885Z,3.73
2018-06-01T13:52:42.954Z,4.67
2018-06-01T13:55:09.733Z,3.80
2018-06-01T13:57:36.349Z,3.83
2018-06-01T14:09:08.673Z,4.03
2018-06-01T14:11:35.282Z,4.70
2018-06-01T14:14:02.182Z,3.73
2018-06-01T14:16:28.845Z,5.13
2018-06-01T14:18:55.537Z,3.93
2018-06-01T14:21:22.561Z,5.33
2018-06-01T14:23:49.535Z,4.43
2018-06-01T14:26:16.353Z,3.70
2018-06-01T14:31:24.347Z,4.50
2018-06-01T14:33:51.069Z,4.93
2018-06-01T14:36:17.713Z,3.73
2018-06-01T14:38:44.661Z,4.27
2018-06-01T14:41:11.741Z,4.27
2018-06-01T14:43:38.460Z,4.37
2018-06-01T14:46:05.267Z,5.03
2018-06-01T14:48:32.067Z,6.43
2018-06-01T14:50:58.910Z,6.13
2018-06-01T14:53:26.001Z,4.80
2018-06-01T14:55:52.545Z,4.70
2018-06-01T14:58:19.104Z,5.43
2018-06-01T15:00:45.768Z,5.00
2018-06-01T15:03:12.403Z,4.37
2018-06-01T15:05:38.974Z,4.00
2018-06-01T15:08:05.561Z,3.60
2018-06-01T15:10:32.069Z,4.30
2018-06-01T15:12:58.903Z,3.60
2018-06-01T15:15:25.673Z,4.83
2018-06-01T15:17:52.417Z,4.00
2018-06-01T15:20:19.004Z,4.30
2018-06-01T15:22:45.642Z,4.40
2018-06-01T15:25:12.409Z,3.93
2018-06-01T15:27:39.081Z,3.77
2018-06-01T15:30:05.799Z,4.10
2018-06-01T15:32:33.821Z,4.10
2018-06-01T15:35:01.042Z,4.67
2018-06-01T15:37:27.648Z,4.23
2018-06-01T15:39:54.538Z,4.40
2018-06-01T15:42:21.244Z,4.30
2018-06-01T15:44:47.945Z,4.57
2018-06-01T15:47:18.095Z,4.77
2018-06-01T15:49:45.188Z,4.17
2018-06-01T15:52:15.547Z,4.13
2018-06-01T15:54:43.061Z,4.10
2018-06-01T15:57:09.983Z,4.83
2018-06-01T15:59:36.822Z,4.70
2018-06-01T16:02:05.392Z,4.33
2018-06-01T16:04:32.273Z,4.10
2018-06-01T16:06:59.154Z,4.07
2018-06-01T16:09:25.831Z,4.43
2018-06-01T16:11:52.505Z,4.90
2018-06-01T16:14:19.725Z,4.37
2018-06-01T16:16:47.040Z,3.90
2018-06-01T16:19:13.916Z,4.07
2018-06-01T16:21:40.801Z,4.47
2018-06-01T16:24:07.432Z,4.37
2018-06-01T16:26:34.011Z,4.17
2018-06-01T16:29:00.661Z,4.27
2018-06-01T16:31:27.412Z,4.50
2018-06-01T16:33:54.241Z,4.57
2018-06-01T16:36:21.077Z,5.00
2018-06-01T16:38:47.744Z,4.40
2018-06-01T16:41:15.271Z,4.10
2018-06-01T16:43:41.841Z,3.83
2018-06-01T16:46:08.416Z,4.23
2018-06-01T16:48:34.928Z,4.50
2018-06-01T16:51:01.505Z,4.23
2018-06-01T16:53:28.228Z,4.50
2018-06-01T16:55:54.891Z,4.13
2018-06-01T16:58:21.733Z,4.30
2018-06-01T17:00:48.245Z,4.50
2018-06-01T17:03:14.866Z,4.33
2018-06-01T17:05:41.665Z,3.80
2018-06-01T17:08:08.655Z,4.27
2018-06-01T17:10:35.160Z,3.57
2018-06-01T17:13:01.854Z,4.17
2018-06-01T17:15:29.771Z,4.10
2018-06-01T17:20:48.645Z,4.07
2018-06-01T17:23:15.403Z,4.20
2018-06-01T17:25:42.159Z,4.30
2018-06-01T17:28:08.740Z,4.87
2018-06-01T17:30:35.389Z,4.57
2018-06-01T17:33:01.917Z,4.67
2018-06-01T17:35:28.660Z,4.50
2018-06-01T17:37:55.340Z,3.63
2018-06-01T17:40:22.012Z,4.77
2018-06-01T17:42:48.613Z,4.70
2018-06-01T17:45:15.248Z,3.93
2018-06-01T17:47:41.745Z,4.37
2018-06-01T17:50:08.367Z,4.40
2018-06-01T17:52:35.058Z,4.20
2018-06-01T17:55:01.749Z,4.60
2018-06-01T17:57:28.350Z,4.50
2018-06-01T17:59:55.045Z,4.53
2018-06-01T18:02:21.789Z,5.97
2018-06-01T18:04:50.233Z,7.57
2018-06-01T18:07:17.108Z,7.50
2018-06-01T18:09:43.656Z,9.67
2018-06-01T18:12:10.314Z,13.63
2018-06-01T18:14:37.113Z,29.53
2018-06-01T18:17:03.752Z,19.70
2018-06-01T18:19:30.440Z,13.90
2018-06-01T18:21:57.525Z,14.80
2018-06-01T18:24:24.130Z,6.70
2018-06-01T18:26:50.627Z,7.67
2018-06-01T18:29:17.406Z,6.17
2018-06-01T18:31:44.187Z,6.47
2018-06-01T18:34:10.738Z,6.20
2018-06-01T18:36:37.263Z,6.23
2018-06-01T18:39:04.878Z,6.67
2018-06-01T18:41:31.480Z,5.80
2018-06-01T18:43:58.651Z,5.67
2018-06-01T18:46:26.078Z,6.80
2018-06-01T18:48:52.677Z,5.00
2018-06-01T18:51:19.213Z,6.20
2018-06-01T18:53:45.915Z,6.57
2018-06-01T18:56:12.531Z,5.90
2018-06-01T18:58:39.213Z,5.70
2018-06-01T19:01:05.999Z,6.33
2018-06-01T19:03:32.520Z,6.43
2018-06-01T19:05:59.529Z,8.37
2018-06-01T19:08:26.026Z,7.17
2018-06-01T19:10:52.644Z,8.83
2018-06-01T19:13:19.196Z,8.70
2018-06-01T19:15:46.084Z,9.47
2018-06-01T19:18:12.549Z,10.37
2018-06-01T19:20:39.083Z,13.80
2018-06-01T19:23:05.562Z,11.93
2018-06-01T19:25:32.225Z,9.70
2018-06-01T19:27:58.833Z,7.53
2018-06-01T19:30:25.447Z,7.80
2018-06-01T19:32:51.970Z,7.70
2018-06-01T19:35:18.516Z,7.53
2018-06-01T19:37:45.101Z,8.20
2018-06-01T19:40:11.736Z,10.60
2018-06-01T19:42:38.616Z,10.27
2018-06-01T19:45:05.376Z,9.77
2018-06-01T19:47:32.111Z,15.20
2018-06-01T19:49:58.655Z,10.53
2018-06-01T19:52:25.204Z,10.03
2018-06-01T19:54:51.794Z,8.90
2018-06-01T19:57:18.777Z,9.30
2018-06-01T19:59:45.697Z,8.53
2018-06-01T20:02:12.358Z,9.30
2018-06-01T20:04:38.908Z,8.10
2018-06-01T20:07:05.444Z,8.60
2018-06-01T20:09:32.218Z,8.13
2018-06-01T20:11:58.867Z,9.63
2018-06-01T20:14:25.557Z,11.50
2018-06-01T20:16:52.137Z,11.50
2018-06-01T20:19:18.710Z,9.70
2018-06-01T20:21:45.320Z,9.53
2018-06-01T20:24:11.896Z,9.03
2018-06-01T20:26:38.491Z,7.30
2018-06-01T20:29:05.072Z,6.67
2018-06-01T20:31:31.653Z,7.50
2018-06-01T20:33:58.223Z,7.00
2018-06-01T20:36:24.748Z,6.77
2018-06-01T20:38:51.362Z,7.80
2018-06-01T20:41:17.961Z,7.37
2018-06-01T20:43:44.476Z,6.93
2018-06-01T20:46:12.364Z,6.60
2018-06-01T20:48:53.852Z,5.87
2018-06-01T20:51:20.457Z,6.77
2018-06-01T20:53:46.972Z,6.17
2018-06-01T20:56:13.588Z,5.90
2018-06-01T20:58:40.058Z,6.70
2018-06-01T21:01:06.711Z,5.67
2018-06-01T21:03:33.470Z,6.20
2018-06-01T21:06:00.122Z,6.07
2018-06-01T21:08:26.664Z,6.03
2018-06-01T21:10:53.281Z,6.83
2018-06-01T21:16:12.019Z,7.00
2018-06-01T21:18:38.737Z,6.90
2018-06-01T21:24:09.350Z,7.10
2018-06-01T21:26:36.045Z,7.37
2018-06-01T21:29:02.592Z,6.70
2018-06-01T21:31:29.201Z,6.30
2018-06-01T21:33:55.929Z,6.43
2018-06-01T21:36:22.534Z,5.80
2018-06-01T21:38:49.298Z,6.23
2018-06-01T21:41:15.927Z,5.40
2018-06-01T21:43:42.421Z,5.47
2018-06-01T21:46:09.016Z,5.50
2018-06-01T21:48:35.637Z,5.57
2018-06-01T21:51:02.237Z,5.37
2018-06-01T21:53:28.829Z,5.37
2018-06-01T21:55:55.574Z,5.70
2018-06-01T21:58:22.229Z,6.10
2018-06-01T22:00:48.736Z,5.27
2018-06-01T22:03:15.369Z,5.60
2018-06-01T22:05:41.826Z,6.00
2018-06-01T22:08:08.496Z,5.93
2018-06-01T22:10:35.398Z,5.30
2018-06-01T22:13:01.949Z,6.30
2018-06-01T22:15:28.560Z,6.27
2018-06-01T22:17:55.134Z,5.87
2018-06-01T22:20:21.802Z,6.63
2018-06-01T22:22:48.388Z,6.43
2018-06-01T22:25:15.004Z,6.10
2018-06-01T22:27:41.671Z,6.33
2018-06-01T22:30:08.373Z,6.57
2018-06-01T22:32:34.910Z,6.10
2018-06-01T22:35:01.481Z,5.10
2018-06-01T22:37:27.997Z,5.47
2018-06-01T22:39:54.593Z,6.90
2018-06-01T22:42:21.119Z,5.63
2018-06-01T22:44:47.636Z,5.40
2018-06-01T22:47:14.264Z,6.13
2018-06-01T22:49:40.913Z,5.53
2018-06-01T22:52:07.461Z,4.93
2018-06-01T22:57:07.383Z,6.07
2018-06-01T22:59:33.954Z,5.13
2018-06-01T23:02:00.561Z,5.70
2018-06-01T23:04:27.248Z,6.90
2018-06-01T23:06:53.868Z,6.47
2018-06-01T23:09:20.487Z,6.00
2018-06-01T23:11:47.167Z,6.00
2018-06-01T23:14:13.898Z,6.63
2018-06-01T23:16:40.432Z,5.87
2018-06-01T23:19:06.927Z,6.27
2018-06-01T23:21:33.565Z,5.93
2018-06-01T23:24:00.148Z,6.20
2018-06-01T23:26:26.801Z,6.07
2018-06-01T23:29:00.280Z,5.47
2018-06-01T23:31:26.876Z,5.97
2018-06-01T23:33:53.578Z,6.90
2018-06-01T23:36:20.046Z,6.37
2018-06-01T23:38:46.639Z,5.47
2018-06-01T23:41:13.232Z,6.17
2018-06-01T23:43:39.707Z,5.53
2018-06-01T23:46:06.369Z,5.33
2018-06-01T23:48:33.029Z,5.30
2018-06-01T23:50:59.659Z,5.90
2018-06-01T23:53:26.269Z,4.90
2018-06-01T23:55:52.831Z,5.47
2018-06-01T23:58:19.317Z,5.50
